sensor_id;sensor_type;location;lat;lon;timestamp;temperature;humidity
65046;DHT22;54657;52.022;5.534;2022-11-15T00:00:08;9.10;77.30
65046;DHT22;54657;52.022;5.534;2022-11-15T00:02:35;9.00;77.40
65046;DHT22;54657;52.022;5.534;2022-11-15T00:05:00;9.00;77.60
65046;DHT22;54657;52.022;5.534;2022-11-15T00:07:26;9.10;77.80
65046;DHT22;54657;52.022;5.534;2022-11-15T00:09:51;9.10;78.10
65046;DHT22;54657;52.022;5.534;2022-11-15T00:12:17;9.10;78.10
65046;DHT22;54657;52.022;5.534;2022-11-15T00:14:42;9.10;77.80
65046;DHT22;54657;52.022;5.534;2022-11-15T00:17:08;9.10;78.10
65046;DHT22;54657;52.022;5.534;2022-11-15T00:19:33;9.10;78.00
65046;DHT22;54657;52.022;5.534;2022-11-15T00:22:00;9.20;78.00
65046;DHT22;54657;52.022;5.534;2022-11-15T00:24:25;9.20;77.90
65046;DHT22;54657;52.022;5.534;2022-11-15T00:26:51;9.20;78.00
65046;DHT22;54657;52.022;5.534;2022-11-15T00:29:16;9.20;78.40
65046;DHT22;54657;52.022;5.534;2022-11-15T00:31:42;9.20;78.10
65046;DHT22;54657;52.022;5.534;2022-11-15T00:34:09;9.20;78.70
65046;DHT22;54657;52.022;5.534;2022-11-15T00:36:35;9.20;78.60
65046;DHT22;54657;52.022;5.534;2022-11-15T00:39:03;9.20;79.00
65046;DHT22;54657;52.022;5.534;2022-11-15T00:41:29;9.30;78.90
65046;DHT22;54657;52.022;5.534;2022-11-15T00:43:55;9.30;79.20
65046;DHT22;54657;52.022;5.534;2022-11-15T00:46:20;9.30;78.70
65046;DHT22;54657;52.022;5.534;2022-11-15T00:48:46;9.30;79.10
65046;DHT22;54657;52.022;5.534;2022-11-15T00:51:11;9.30;78.70
65046;DHT22;54657;52.022;5.534;2022-11-15T00:53:37;9.40;79.00
65046;DHT22;54657;52.022;5.534;2022-11-15T00:56:03;9.40;78.90
65046;DHT22;54657;52.022;5.534;2022-11-15T00:58:28;9.50;78.80
65046;DHT22;54657;52.022;5.534;2022-11-15T01:00:54;9.50;78.90
65046;DHT22;54657;52.022;5.534;2022-11-15T01:03:20;9.50;79.00
65046;DHT22;54657;52.022;5.534;2022-11-15T01:05:45;9.50;78.90
65046;DHT22;54657;52.022;5.534;2022-11-15T01:08:15;9.50;79.00
65046;DHT22;54657;52.022;5.534;2022-11-15T01:10:41;9.50;79.00
65046;DHT22;54657;52.022;5.534;2022-11-15T01:13:07;9.50;78.70
65046;DHT22;54657;52.022;5.534;2022-11-15T01:15:33;9.50;79.20
65046;DHT22;54657;52.022;5.534;2022-11-15T01:17:58;9.50;79.10
65046;DHT22;54657;52.022;5.534;2022-11-15T01:20:24;9.50;79.10
65046;DHT22;54657;52.022;5.534;2022-11-15T01:22:49;9.50;79.10
65046;DHT22;54657;52.022;5.534;2022-11-15T01:25:15;9.50;79.10
65046;DHT22;54657;52.022;5.534;2022-11-15T01:27:40;9.50;79.50
65046;DHT22;54657;52.022;5.534;2022-11-15T01:30:06;9.60;79.40
65046;DHT22;54657;52.022;5.534;2022-11-15T01:32:33;9.60;79.60
65046;DHT22;54657;52.022;5.534;2022-11-15T01:34:59;9.60;79.50
65046;DHT22;54657;52.022;5.534;2022-11-15T01:37:24;9.60;79.50
65046;DHT22;54657;52.022;5.534;2022-11-15T01:39:50;9.70;79.40
65046;DHT22;54657;52.022;5.534;2022-11-15T01:42:15;9.70;79.50
65046;DHT22;54657;52.022;5.534;2022-11-15T01:44:48;9.70;79.60
65046;DHT22;54657;52.022;5.534;2022-11-15T01:47:15;9.70;79.70
65046;DHT22;54657;52.022;5.534;2022-11-15T01:50:11;9.80;79.60
65046;DHT22;54657;52.022;5.534;2022-11-15T01:52:36;9.80;79.80
65046;DHT22;54657;52.022;5.534;2022-11-15T01:55:05;9.80;79.70
65046;DHT22;54657;52.022;5.534;2022-11-15T01:57:31;9.90;79.70
65046;DHT22;54657;52.022;5.534;2022-11-15T01:59:57;9.90;79.70
65046;DHT22;54657;52.022;5.534;2022-11-15T02:02:23;10.00;79.80
65046;DHT22;54657;52.022;5.534;2022-11-15T02:04:49;10.00;79.70
65046;DHT22;54657;52.022;5.534;2022-11-15T02:07:17;10.00;79.70
65046;DHT22;54657;52.022;5.534;2022-11-15T02:09:44;10.10;79.80
65046;DHT22;54657;52.022;5.534;2022-11-15T02:12:10;10.10;79.70
65046;DHT22;54657;52.022;5.534;2022-11-15T02:14:40;10.20;79.80
65046;DHT22;54657;52.022;5.534;2022-11-15T02:28:21;10.30;80.10
65046;DHT22;54657;52.022;5.534;2022-11-15T02:31:28;10.30;80.70
65046;DHT22;54657;52.022;5.534;2022-11-15T02:39:33;10.40;81.20
65046;DHT22;54657;52.022;5.534;2022-11-15T02:42:07;10.50;81.30
65046;DHT22;54657;52.022;5.534;2022-11-15T02:44:55;10.50;81.30
65046;DHT22;54657;52.022;5.534;2022-11-15T02:47:24;10.50;81.20
65046;DHT22;54657;52.022;5.534;2022-11-15T02:49:53;10.60;81.60
65046;DHT22;54657;52.022;5.534;2022-11-15T02:52:21;10.60;81.20
65046;DHT22;54657;52.022;5.534;2022-11-15T02:57:22;10.70;81.60
65046;DHT22;54657;52.022;5.534;2022-11-15T03:00:08;10.70;82.00
65046;DHT22;54657;52.022;5.534;2022-11-15T03:02:54;10.70;81.40
65046;DHT22;54657;52.022;5.534;2022-11-15T03:05:56;10.70;81.90
65046;DHT22;54657;52.022;5.534;2022-11-15T03:08:32;10.80;82.20
65046;DHT22;54657;52.022;5.534;2022-11-15T03:11:16;10.80;81.00
65046;DHT22;54657;52.022;5.534;2022-11-15T03:19:12;10.90;81.20
65046;DHT22;54657;52.022;5.534;2022-11-15T03:21:40;10.90;81.60
65046;DHT22;54657;52.022;5.534;2022-11-15T03:24:08;10.90;81.60
65046;DHT22;54657;52.022;5.534;2022-11-15T03:26:37;11.00;81.60
65046;DHT22;54657;52.022;5.534;2022-11-15T03:29:12;11.00;82.00
65046;DHT22;54657;52.022;5.534;2022-11-15T03:31:42;11.00;81.50
65046;DHT22;54657;52.022;5.534;2022-11-15T03:34:14;11.10;81.70
65046;DHT22;54657;52.022;5.534;2022-11-15T03:36:43;11.00;84.60
65046;DHT22;54657;52.022;5.534;2022-11-15T03:39:09;11.00;82.50
65046;DHT22;54657;52.022;5.534;2022-11-15T03:41:39;11.10;82.00
65046;DHT22;54657;52.022;5.534;2022-11-15T03:47:17;11.10;84.60
65046;DHT22;54657;52.022;5.534;2022-11-15T03:49:49;11.20;83.60
65046;DHT22;54657;52.022;5.534;2022-11-15T03:52:20;11.20;82.40
65046;DHT22;54657;52.022;5.534;2022-11-15T03:54:56;11.30;83.30
65046;DHT22;54657;52.022;5.534;2022-11-15T03:57:22;11.20;83.90
65046;DHT22;54657;52.022;5.534;2022-11-15T03:59:48;11.30;83.50
65046;DHT22;54657;52.022;5.534;2022-11-15T04:02:14;11.30;83.40
65046;DHT22;54657;52.022;5.534;2022-11-15T04:04:39;11.30;83.50
65046;DHT22;54657;52.022;5.534;2022-11-15T04:07:05;11.40;82.90
65046;DHT22;54657;52.022;5.534;2022-11-15T04:09:30;11.40;82.80
65046;DHT22;54657;52.022;5.534;2022-11-15T04:11:56;11.50;83.00
65046;DHT22;54657;52.022;5.534;2022-11-15T04:14:22;11.50;82.80
65046;DHT22;54657;52.022;5.534;2022-11-15T04:16:47;11.50;83.50
65046;DHT22;54657;52.022;5.534;2022-11-15T04:19:13;11.50;83.90
65046;DHT22;54657;52.022;5.534;2022-11-15T04:21:57;11.50;83.20
65046;DHT22;54657;52.022;5.534;2022-11-15T04:24:41;11.50;83.30
65046;DHT22;54657;52.022;5.534;2022-11-15T04:27:06;11.50;83.40
65046;DHT22;54657;52.022;5.534;2022-11-15T04:29:32;11.50;83.60
65046;DHT22;54657;52.022;5.534;2022-11-15T04:32:05;11.50;83.70
65046;DHT22;54657;52.022;5.534;2022-11-15T04:34:31;11.60;83.90
65046;DHT22;54657;52.022;5.534;2022-11-15T04:36:56;11.60;83.50
65046;DHT22;54657;52.022;5.534;2022-11-15T04:39:38;11.60;83.60
65046;DHT22;54657;52.022;5.534;2022-11-15T04:42:04;11.70;83.50
65046;DHT22;54657;52.022;5.534;2022-11-15T04:44:29;11.70;83.70
65046;DHT22;54657;52.022;5.534;2022-11-15T04:46:55;11.70;83.50
65046;DHT22;54657;52.022;5.534;2022-11-15T04:49:20;11.70;83.30
65046;DHT22;54657;52.022;5.534;2022-11-15T04:51:46;11.70;83.40
65046;DHT22;54657;52.022;5.534;2022-11-15T04:54:12;11.70;84.20
65046;DHT22;54657;52.022;5.534;2022-11-15T04:56:37;11.80;83.60
65046;DHT22;54657;52.022;5.534;2022-11-15T04:59:03;11.80;83.30
65046;DHT22;54657;52.022;5.534;2022-11-15T05:01:28;11.80;83.50
65046;DHT22;54657;52.022;5.534;2022-11-15T05:03:54;11.80;84.10
65046;DHT22;54657;52.022;5.534;2022-11-15T05:06:38;11.80;83.50
65046;DHT22;54657;52.022;5.534;2022-11-15T05:09:04;11.80;83.50
65046;DHT22;54657;52.022;5.534;2022-11-15T05:11:29;11.80;83.70
65046;DHT22;54657;52.022;5.534;2022-11-15T05:13:55;11.80;84.00
65046;DHT22;54657;52.022;5.534;2022-11-15T05:16:21;11.80;83.80
65046;DHT22;54657;52.022;5.534;2022-11-15T05:18:46;11.90;83.50
65046;DHT22;54657;52.022;5.534;2022-11-15T05:21:14;11.90;83.60
65046;DHT22;54657;52.022;5.534;2022-11-15T05:23:40;11.90;83.50
65046;DHT22;54657;52.022;5.534;2022-11-15T05:26:07;11.90;83.30
65046;DHT22;54657;52.022;5.534;2022-11-15T05:28:33;11.90;83.70
65046;DHT22;54657;52.022;5.534;2022-11-15T05:31:07;11.90;83.40
65046;DHT22;54657;52.022;5.534;2022-11-15T05:33:34;11.90;84.10
65046;DHT22;54657;52.022;5.534;2022-11-15T05:36:13;11.90;83.70
65046;DHT22;54657;52.022;5.534;2022-11-15T05:38:41;11.90;84.70
65046;DHT22;54657;52.022;5.534;2022-11-15T05:41:07;11.90;83.30
65046;DHT22;54657;52.022;5.534;2022-11-15T05:43:35;11.90;84.60
65046;DHT22;54657;52.022;5.534;2022-11-15T05:46:03;11.90;84.20
65046;DHT22;54657;52.022;5.534;2022-11-15T05:48:29;12.00;83.80
65046;DHT22;54657;52.022;5.534;2022-11-15T05:50:56;12.00;84.50
65046;DHT22;54657;52.022;5.534;2022-11-15T05:53:23;12.00;84.40
65046;DHT22;54657;52.022;5.534;2022-11-15T05:55:49;12.00;84.00
65046;DHT22;54657;52.022;5.534;2022-11-15T05:58:15;12.00;84.00
65046;DHT22;54657;52.022;5.534;2022-11-15T06:00:41;12.00;84.10
65046;DHT22;54657;52.022;5.534;2022-11-15T06:03:08;12.10;84.70
65046;DHT22;54657;52.022;5.534;2022-11-15T06:05:34;12.10;84.20
65046;DHT22;54657;52.022;5.534;2022-11-15T06:08:00;12.10;84.50
65046;DHT22;54657;52.022;5.534;2022-11-15T06:10:25;12.10;85.00
65046;DHT22;54657;52.022;5.534;2022-11-15T06:13:02;12.10;84.50
65046;DHT22;54657;52.022;5.534;2022-11-15T06:15:28;12.10;85.40
65046;DHT22;54657;52.022;5.534;2022-11-15T06:17:58;12.10;84.30
65046;DHT22;54657;52.022;5.534;2022-11-15T06:20:25;12.20;84.70
65046;DHT22;54657;52.022;5.534;2022-11-15T06:22:51;12.20;84.60
65046;DHT22;54657;52.022;5.534;2022-11-15T06:25:21;12.20;84.50
65046;DHT22;54657;52.022;5.534;2022-11-15T06:27:51;12.20;84.40
65046;DHT22;54657;52.022;5.534;2022-11-15T06:30:17;12.20;85.20
65046;DHT22;54657;52.022;5.534;2022-11-15T06:32:43;12.20;84.30
65046;DHT22;54657;52.022;5.534;2022-11-15T06:35:08;12.20;84.00
65046;DHT22;54657;52.022;5.534;2022-11-15T06:37:34;12.30;84.50
65046;DHT22;54657;52.022;5.534;2022-11-15T06:39:59;12.30;84.60
65046;DHT22;54657;52.022;5.534;2022-11-15T06:42:25;12.30;84.40
65046;DHT22;54657;52.022;5.534;2022-11-15T06:44:50;12.30;85.20
65046;DHT22;54657;52.022;5.534;2022-11-15T06:47:16;12.30;84.90
65046;DHT22;54657;52.022;5.534;2022-11-15T06:49:41;12.30;84.40
65046;DHT22;54657;52.022;5.534;2022-11-15T06:52:07;12.40;84.50
65046;DHT22;54657;52.022;5.534;2022-11-15T06:54:32;12.40;84.50
65046;DHT22;54657;52.022;5.534;2022-11-15T06:56:58;12.40;84.50
65046;DHT22;54657;52.022;5.534;2022-11-15T06:59:23;12.40;84.80
65046;DHT22;54657;52.022;5.534;2022-11-15T07:01:49;12.40;84.80
65046;DHT22;54657;52.022;5.534;2022-11-15T07:04:15;12.40;84.90
65046;DHT22;54657;52.022;5.534;2022-11-15T07:06:40;12.40;84.80
65046;DHT22;54657;52.022;5.534;2022-11-15T07:09:06;12.40;84.70
65046;DHT22;54657;52.022;5.534;2022-11-15T07:11:33;12.40;84.70
65046;DHT22;54657;52.022;5.534;2022-11-15T07:13:59;12.40;84.80
65046;DHT22;54657;52.022;5.534;2022-11-15T07:16:25;12.40;85.10
65046;DHT22;54657;52.022;5.534;2022-11-15T07:18:51;12.40;85.00
65046;DHT22;54657;52.022;5.534;2022-11-15T07:21:16;12.40;85.20
65046;DHT22;54657;52.022;5.534;2022-11-15T07:23:42;12.40;85.00
65046;DHT22;54657;52.022;5.534;2022-11-15T07:26:07;12.40;85.00
65046;DHT22;54657;52.022;5.534;2022-11-15T07:28:33;12.40;84.90
65046;DHT22;54657;52.022;5.534;2022-11-15T07:31:04;12.40;85.00
65046;DHT22;54657;52.022;5.534;2022-11-15T07:33:30;12.40;85.30
65046;DHT22;54657;52.022;5.534;2022-11-15T07:36:02;12.40;85.00
65046;DHT22;54657;52.022;5.534;2022-11-15T07:38:28;12.50;84.90
65046;DHT22;54657;52.022;5.534;2022-11-15T07:40:59;12.40;84.90
65046;DHT22;54657;52.022;5.534;2022-11-15T07:43:25;12.50;85.50
65046;DHT22;54657;52.022;5.534;2022-11-15T07:45:53;12.50;84.90
65046;DHT22;54657;52.022;5.534;2022-11-15T07:48:19;12.40;85.10
65046;DHT22;54657;52.022;5.534;2022-11-15T07:50:45;12.50;84.80
65046;DHT22;54657;52.022;5.534;2022-11-15T07:53:11;12.50;84.90
65046;DHT22;54657;52.022;5.534;2022-11-15T07:55:36;12.50;85.10
65046;DHT22;54657;52.022;5.534;2022-11-15T07:58:03;12.50;85.10
65046;DHT22;54657;52.022;5.534;2022-11-15T08:00:29;12.50;84.90
65046;DHT22;54657;52.022;5.534;2022-11-15T08:03:08;12.50;85.00
65046;DHT22;54657;52.022;5.534;2022-11-15T08:05:35;12.50;85.00
65046;DHT22;54657;52.022;5.534;2022-11-15T08:08:01;12.60;84.70
65046;DHT22;54657;52.022;5.534;2022-11-15T08:10:27;12.50;84.80
65046;DHT22;54657;52.022;5.534;2022-11-15T08:13:09;12.60;84.60
65046;DHT22;54657;52.022;5.534;2022-11-15T08:15:35;12.60;84.70
65046;DHT22;54657;52.022;5.534;2022-11-15T08:18:08;12.60;84.50
65046;DHT22;54657;52.022;5.534;2022-11-15T08:20:34;12.60;84.50
65046;DHT22;54657;52.022;5.534;2022-11-15T08:23:01;12.60;84.50
65046;DHT22;54657;52.022;5.534;2022-11-15T08:25:28;12.60;84.60
65046;DHT22;54657;52.022;5.534;2022-11-15T08:27:58;12.70;84.40
65046;DHT22;54657;52.022;5.534;2022-11-15T08:30:24;12.70;84.20
65046;DHT22;54657;52.022;5.534;2022-11-15T08:32:51;12.70;84.20
65046;DHT22;54657;52.022;5.534;2022-11-15T08:35:18;12.70;84.10
65046;DHT22;54657;52.022;5.534;2022-11-15T08:37:43;12.80;84.20
65046;DHT22;54657;52.022;5.534;2022-11-15T08:40:09;12.70;84.20
65046;DHT22;54657;52.022;5.534;2022-11-15T08:42:35;12.80;84.30
65046;DHT22;54657;52.022;5.534;2022-11-15T08:45:01;12.80;84.00
65046;DHT22;54657;52.022;5.534;2022-11-15T08:47:26;12.80;84.00
65046;DHT22;54657;52.022;5.534;2022-11-15T08:49:52;12.80;84.10
65046;DHT22;54657;52.022;5.534;2022-11-15T08:52:18;12.80;83.90
65046;DHT22;54657;52.022;5.534;2022-11-15T08:54:43;12.80;84.10
65046;DHT22;54657;52.022;5.534;2022-11-15T08:57:09;12.80;84.00
65046;DHT22;54657;52.022;5.534;2022-11-15T08:59:36;12.80;84.10
65046;DHT22;54657;52.022;5.534;2022-11-15T09:02:03;12.80;83.90
65046;DHT22;54657;52.022;5.534;2022-11-15T09:04:28;12.80;83.90
65046;DHT22;54657;52.022;5.534;2022-11-15T09:06:54;12.80;83.90
65046;DHT22;54657;52.022;5.534;2022-11-15T09:09:20;12.90;84.00
65046;DHT22;54657;52.022;5.534;2022-11-15T09:11:45;12.80;84.10
65046;DHT22;54657;52.022;5.534;2022-11-15T09:14:12;12.90;83.90
65046;DHT22;54657;52.022;5.534;2022-11-15T09:16:38;12.80;84.10
65046;DHT22;54657;52.022;5.534;2022-11-15T09:19:04;12.80;84.10
65046;DHT22;54657;52.022;5.534;2022-11-15T09:21:30;12.80;84.00
65046;DHT22;54657;52.022;5.534;2022-11-15T09:23:56;12.80;84.20
65046;DHT22;54657;52.022;5.534;2022-11-15T09:26:21;12.80;84.30
65046;DHT22;54657;52.022;5.534;2022-11-15T09:28:47;12.80;83.90
65046;DHT22;54657;52.022;5.534;2022-11-15T09:31:12;12.80;84.10
65046;DHT22;54657;52.022;5.534;2022-11-15T09:33:38;12.80;84.70
65046;DHT22;54657;52.022;5.534;2022-11-15T09:36:06;12.80;84.00
65046;DHT22;54657;52.022;5.534;2022-11-15T09:38:32;12.90;83.90
65046;DHT22;54657;52.022;5.534;2022-11-15T09:43:43;12.90;84.20
65046;DHT22;54657;52.022;5.534;2022-11-15T09:46:27;12.90;83.80
65046;DHT22;54657;52.022;5.534;2022-11-15T09:48:59;12.90;83.70
65046;DHT22;54657;52.022;5.534;2022-11-15T09:51:34;13.00;83.50
65046;DHT22;54657;52.022;5.534;2022-11-15T09:54:16;13.00;83.50
65046;DHT22;54657;52.022;5.534;2022-11-15T09:56:44;13.00;83.50
65046;DHT22;54657;52.022;5.534;2022-11-15T10:05:19;13.00;83.00
65046;DHT22;54657;52.022;5.534;2022-11-15T10:08:05;13.10;83.00
65046;DHT22;54657;52.022;5.534;2022-11-15T10:10:40;13.10;83.00
65046;DHT22;54657;52.022;5.534;2022-11-15T10:13:16;13.10;82.40
65046;DHT22;54657;52.022;5.534;2022-11-15T10:15:46;13.10;82.30
65046;DHT22;54657;52.022;5.534;2022-11-15T10:21:15;13.10;81.40
65046;DHT22;54657;52.022;5.534;2022-11-15T10:23:42;13.10;81.40
65046;DHT22;54657;52.022;5.534;2022-11-15T10:26:12;13.10;81.80
65046;DHT22;54657;52.022;5.534;2022-11-15T10:28:39;13.10;81.60
65046;DHT22;54657;52.022;5.534;2022-11-15T10:31:24;13.00;81.20
65046;DHT22;54657;52.022;5.534;2022-11-15T10:33:51;13.10;81.30
65046;DHT22;54657;52.022;5.534;2022-11-15T10:36:24;13.20;81.30
65046;DHT22;54657;52.022;5.534;2022-11-15T10:41:20;13.20;80.50
65046;DHT22;54657;52.022;5.534;2022-11-15T10:46:38;13.20;79.60
65046;DHT22;54657;52.022;5.534;2022-11-15T10:49:17;13.20;80.20
65046;DHT22;54657;52.022;5.534;2022-11-15T10:51:57;13.20;79.60
65046;DHT22;54657;52.022;5.534;2022-11-15T10:54:42;13.20;79.80
65046;DHT22;54657;52.022;5.534;2022-11-15T10:57:14;13.30;78.30
65046;DHT22;54657;52.022;5.534;2022-11-15T10:59:46;13.30;79.80
65046;DHT22;54657;52.022;5.534;2022-11-15T11:02:36;13.30;79.80
65046;DHT22;54657;52.022;5.534;2022-11-15T11:05:26;13.30;78.90
65046;DHT22;54657;52.022;5.534;2022-11-15T11:08:01;13.30;79.40
65046;DHT22;54657;52.022;5.534;2022-11-15T11:10:27;13.30;79.30
65046;DHT22;54657;52.022;5.534;2022-11-15T11:12:53;13.30;79.30
65046;DHT22;54657;52.022;5.534;2022-11-15T11:15:19;13.40;79.30
65046;DHT22;54657;52.022;5.534;2022-11-15T11:17:58;13.40;79.40
65046;DHT22;54657;52.022;5.534;2022-11-15T11:20:45;13.40;78.60
65046;DHT22;54657;52.022;5.534;2022-11-15T11:23:36;13.50;78.60
65046;DHT22;54657;52.022;5.534;2022-11-15T11:29:17;13.60;77.70
65046;DHT22;54657;52.022;5.534;2022-11-15T11:40:40;13.50;76.50
65046;DHT22;54657;52.022;5.534;2022-11-15T11:43:26;13.50;76.50
65046;DHT22;54657;52.022;5.534;2022-11-15T11:49:12;13.40;77.70
65046;DHT22;54657;52.022;5.534;2022-11-15T11:52:00;13.40;78.00
65046;DHT22;54657;52.022;5.534;2022-11-15T11:55:12;13.40;78.40
65046;DHT22;54657;52.022;5.534;2022-11-15T11:57:51;13.60;76.90
65046;DHT22;54657;52.022;5.534;2022-11-15T12:00:20;13.60;77.50
65046;DHT22;54657;52.022;5.534;2022-11-15T12:03:14;13.60;77.30
65046;DHT22;54657;52.022;5.534;2022-11-15T12:05:54;13.60;76.60
65046;DHT22;54657;52.022;5.534;2022-11-15T12:08:36;13.70;76.40
65046;DHT22;54657;52.022;5.534;2022-11-15T12:11:09;13.60;76.20
65046;DHT22;54657;52.022;5.534;2022-11-15T12:13:36;13.70;76.40
65046;DHT22;54657;52.022;5.534;2022-11-15T12:16:17;13.70;76.20
65046;DHT22;54657;52.022;5.534;2022-11-15T12:18:48;13.70;75.40
65046;DHT22;54657;52.022;5.534;2022-11-15T12:21:27;13.70;75.50
65046;DHT22;54657;52.022;5.534;2022-11-15T12:24:15;13.60;75.20
65046;DHT22;54657;52.022;5.534;2022-11-15T12:26:55;13.60;74.70
65046;DHT22;54657;52.022;5.534;2022-11-15T12:29:26;13.60;75.20
65046;DHT22;54657;52.022;5.534;2022-11-15T12:31:54;13.50;75.70
65046;DHT22;54657;52.022;5.534;2022-11-15T12:36:49;13.60;75.70
65046;DHT22;54657;52.022;5.534;2022-11-15T12:39:16;13.60;75.50
65046;DHT22;54657;52.022;5.534;2022-11-15T12:59:54;13.50;74.90
65046;DHT22;54657;52.022;5.534;2022-11-15T13:02:40;13.50;74.60
65046;DHT22;54657;52.022;5.534;2022-11-15T13:22:46;13.50;74.40
65046;DHT22;54657;52.022;5.534;2022-11-15T13:28:09;13.50;74.10
65046;DHT22;54657;52.022;5.534;2022-11-15T13:30:36;13.50;74.50
65046;DHT22;54657;52.022;5.534;2022-11-15T13:35:47;13.40;74.10
65046;DHT22;54657;52.022;5.534;2022-11-15T13:38:37;13.40;74.50
65046;DHT22;54657;52.022;5.534;2022-11-15T13:41:20;13.40;73.60
65046;DHT22;54657;52.022;5.534;2022-11-15T13:43:46;13.40;73.00
65046;DHT22;54657;52.022;5.534;2022-11-15T13:46:25;13.30;71.20
65046;DHT22;54657;52.022;5.534;2022-11-15T13:49:03;13.30;74.50
65046;DHT22;54657;52.022;5.534;2022-11-15T13:57:20;13.30;74.30
65046;DHT22;54657;52.022;5.534;2022-11-15T13:59:56;13.30;74.10
65046;DHT22;54657;52.022;5.534;2022-11-15T14:02:30;13.30;74.30
65046;DHT22;54657;52.022;5.534;2022-11-15T14:05:02;13.30;74.80
65046;DHT22;54657;52.022;5.534;2022-11-15T14:07:28;13.30;74.00
65046;DHT22;54657;52.022;5.534;2022-11-15T14:09:54;13.30;73.90
65046;DHT22;54657;52.022;5.534;2022-11-15T14:12:32;13.30;74.00
65046;DHT22;54657;52.022;5.534;2022-11-15T14:15:00;13.30;73.50
65046;DHT22;54657;52.022;5.534;2022-11-15T14:19:55;13.20;73.80
65046;DHT22;54657;52.022;5.534;2022-11-15T14:25:18;13.20;74.00
65046;DHT22;54657;52.022;5.534;2022-11-15T14:28:14;13.30;73.10
65046;DHT22;54657;52.022;5.534;2022-11-15T14:30:41;13.20;73.10
65046;DHT22;54657;52.022;5.534;2022-11-15T14:33:34;13.30;73.80
65046;DHT22;54657;52.022;5.534;2022-11-15T14:36:05;13.20;73.10
65046;DHT22;54657;52.022;5.534;2022-11-15T14:38:31;13.20;71.90
65046;DHT22;54657;52.022;5.534;2022-11-15T14:40:57;13.10;74.20
65046;DHT22;54657;52.022;5.534;2022-11-15T14:43:23;13.20;73.90
65046;DHT22;54657;52.022;5.534;2022-11-15T14:45:49;13.20;73.80
65046;DHT22;54657;52.022;5.534;2022-11-15T14:48:14;13.20;73.60
65046;DHT22;54657;52.022;5.534;2022-11-15T14:50:40;13.20;73.50
65046;DHT22;54657;52.022;5.534;2022-11-15T14:53:06;13.20;73.50
65046;DHT22;54657;52.022;5.534;2022-11-15T14:55:34;13.20;73.40
65046;DHT22;54657;52.022;5.534;2022-11-15T14:58:05;13.20;73.40
65046;DHT22;54657;52.022;5.534;2022-11-15T15:00:33;13.20;73.30
65046;DHT22;54657;52.022;5.534;2022-11-15T15:03:00;13.20;73.30
65046;DHT22;54657;52.022;5.534;2022-11-15T15:05:33;13.20;73.00
65046;DHT22;54657;52.022;5.534;2022-11-15T15:07:59;13.20;73.20
65046;DHT22;54657;52.022;5.534;2022-11-15T15:10:27;13.20;73.60
65046;DHT22;54657;52.022;5.534;2022-11-15T15:12:55;13.20;73.00
65046;DHT22;54657;52.022;5.534;2022-11-15T15:15:24;13.20;73.00
65046;DHT22;54657;52.022;5.534;2022-11-15T15:17:50;13.20;72.80
65046;DHT22;54657;52.022;5.534;2022-11-15T15:20:16;13.20;72.80
65046;DHT22;54657;52.022;5.534;2022-11-15T15:22:41;13.10;72.80
65046;DHT22;54657;52.022;5.534;2022-11-15T15:25:28;13.20;72.80
65046;DHT22;54657;52.022;5.534;2022-11-15T15:27:55;13.10;71.90
65046;DHT22;54657;52.022;5.534;2022-11-15T15:30:26;13.10;72.80
65046;DHT22;54657;52.022;5.534;2022-11-15T15:32:51;13.10;72.50
65046;DHT22;54657;52.022;5.534;2022-11-15T15:35:18;13.10;72.50
65046;DHT22;54657;52.022;5.534;2022-11-15T15:37:44;13.10;72.30
65046;DHT22;54657;52.022;5.534;2022-11-15T15:40:17;13.10;72.50
65046;DHT22;54657;52.022;5.534;2022-11-15T15:42:43;13.10;72.50
65046;DHT22;54657;52.022;5.534;2022-11-15T15:45:09;13.10;72.40
65046;DHT22;54657;52.022;5.534;2022-11-15T15:47:35;13.10;72.50
65046;DHT22;54657;52.022;5.534;2022-11-15T15:50:01;13.10;72.30
65046;DHT22;54657;52.022;5.534;2022-11-15T15:52:26;13.10;72.40
65046;DHT22;54657;52.022;5.534;2022-11-15T15:54:52;13.10;72.20
65046;DHT22;54657;52.022;5.534;2022-11-15T15:57:17;13.10;72.00
65046;DHT22;54657;52.022;5.534;2022-11-15T15:59:43;13.00;72.10
65046;DHT22;54657;52.022;5.534;2022-11-15T16:02:12;13.00;72.30
65046;DHT22;54657;52.022;5.534;2022-11-15T16:04:38;13.10;72.10
65046;DHT22;54657;52.022;5.534;2022-11-15T16:07:03;13.10;72.20
65046;DHT22;54657;52.022;5.534;2022-11-15T16:09:29;13.00;72.10
65046;DHT22;54657;52.022;5.534;2022-11-15T16:12:14;13.00;71.80
65046;DHT22;54657;52.022;5.534;2022-11-15T16:14:41;13.00;72.00
65046;DHT22;54657;52.022;5.534;2022-11-15T16:17:11;13.00;72.10
65046;DHT22;54657;52.022;5.534;2022-11-15T16:19:42;13.00;71.90
65046;DHT22;54657;52.022;5.534;2022-11-15T16:22:07;13.00;72.00
65046;DHT22;54657;52.022;5.534;2022-11-15T16:24:33;13.00;72.00
65046;DHT22;54657;52.022;5.534;2022-11-15T16:26:58;13.00;71.90
65046;DHT22;54657;52.022;5.534;2022-11-15T16:29:24;13.00;72.00
65046;DHT22;54657;52.022;5.534;2022-11-15T16:31:49;13.00;72.10
65046;DHT22;54657;52.022;5.534;2022-11-15T16:34:15;13.00;72.00
65046;DHT22;54657;52.022;5.534;2022-11-15T16:36:40;13.00;71.90
65046;DHT22;54657;52.022;5.534;2022-11-15T16:39:06;13.00;72.00
65046;DHT22;54657;52.022;5.534;2022-11-15T16:41:32;13.00;72.00
65046;DHT22;54657;52.022;5.534;2022-11-15T16:43:58;13.00;72.00
65046;DHT22;54657;52.022;5.534;2022-11-15T16:46:25;13.00;72.00
65046;DHT22;54657;52.022;5.534;2022-11-15T16:48:52;13.00;72.00
65046;DHT22;54657;52.022;5.534;2022-11-15T16:51:21;13.10;72.10
65046;DHT22;54657;52.022;5.534;2022-11-15T16:53:47;13.10;72.30
65046;DHT22;54657;52.022;5.534;2022-11-15T16:56:18;13.00;72.10
65046;DHT22;54657;52.022;5.534;2022-11-15T16:58:45;13.10;72.40
65046;DHT22;54657;52.022;5.534;2022-11-15T17:01:21;13.10;72.40
65046;DHT22;54657;52.022;5.534;2022-11-15T17:03:47;13.20;72.30
65046;DHT22;54657;52.022;5.534;2022-11-15T17:06:13;13.20;72.40
65046;DHT22;54657;52.022;5.534;2022-11-15T17:08:39;13.20;72.60
65046;DHT22;54657;52.022;5.534;2022-11-15T17:11:06;13.30;72.80
65046;DHT22;54657;52.022;5.534;2022-11-15T17:13:32;13.30;72.90
65046;DHT22;54657;52.022;5.534;2022-11-15T17:16:09;13.20;73.00
65046;DHT22;54657;52.022;5.534;2022-11-15T17:18:36;13.30;73.20
65046;DHT22;54657;52.022;5.534;2022-11-15T17:21:06;13.20;73.40
65046;DHT22;54657;52.022;5.534;2022-11-15T17:23:32;13.30;73.50
65046;DHT22;54657;52.022;5.534;2022-11-15T17:26:03;13.30;73.90
65046;DHT22;54657;52.022;5.534;2022-11-15T17:28:33;13.30;74.00
65046;DHT22;54657;52.022;5.534;2022-11-15T17:30:59;13.30;74.10
65046;DHT22;54657;52.022;5.534;2022-11-15T17:33:26;13.30;74.40
65046;DHT22;54657;52.022;5.534;2022-11-15T17:35:59;13.30;74.40
65046;DHT22;54657;52.022;5.534;2022-11-15T17:38:26;13.20;74.70
65046;DHT22;54657;52.022;5.534;2022-11-15T17:41:12;13.20;75.00